Terminal Aerodrome Forecast
Issued by NWS

Home | Current Version | Previous Version | Text Only | Print | Product List | Glossary On
Versions: 1 2 3 4 5 6 7 8 9 10 11 12 13 14 15 16
000
FTUS41 KCAR 221700
TAFPQI
TAF
KPQI 221733Z 2218/2318 05012G20KT P6SM SCT050
     FM222300 05012KT P6SM -RA OVC030
     FM230200 05011KT P6SM -RA OVC020
      AMD LTD TO CLD VIS AND WIND=

USA.gov is the U.S. government's official web portal to all federal, state and local government web resources and services.